Friedman Memorial Airport
KSUN : rendu visible

Aérodrome :











RETROUVEZ-NOUS SUR...

 
LOGIN :

S'inscrire | Disclaimer

   EN    FR    IT 

 









Légende :    VFR   VFR Marginal   IFR   IFR Intensif   IFR Très Intensif
Visi : 
Plafond : 
>= 8 km
>= 3000ft
5 à 8 km
1000 à 3000 ft
1500m à 5 km
500 à 1000 ft
800 à 1500m
200 à 500 ft
< 800m
< 200 ft
Symboles :   Orages  Brouillard  Fortes neiges  Fortes précipitations  Vent > 20 kt






- Altitude de l'aérodrome : 5318 ft


KSUN - Friedman Memorial

DERNIER METAR :
  • 100715Z AUTO 32009KT 10SM CLR M08/M10 A3020 RMK AO2

METARs EXPIRÉS :
  • 100655Z AUTO 32008KT 10SM CLR M07/M10 A3020 RMK AO2
  • 100635Z AUTO 32007KT 10SM CLR M07/M10 A3020 RMK AO2
  • 100615Z AUTO 32008KT 10SM CLR M07/M10 A3020 RMK AO2
  • 100555Z AUTO 32007KT 10SM CLR M07/M10 A3020 RMK AO2
  • 100547Z 30005KT 10SM SKC M08/M10 A3020
  • 100535Z AUTO 31006KT 10SM CLR M07/M10 A3019 RMK AO2
  • 100515Z AUTO 31007KT 10SM CLR M07/M10 A3019 RMK AO2
  • 100447Z 30006KT 10SM SKC M08/M09 A3019

TAF KSUN
Valide du 10 à 06h jusqu'au 11 à 12h UTC


100530Z 1006/1112 31006KT P6SM SCT200
FM102000 15006KT P6SM FEW008 SCT180
FM110300 31007KT P6SM SCT150 AMD LTD TO CLD VIS AND WIND TIL 101300



MET'MAP, la Météo Aéronautique d'un coup d'oeil ! - Copyright ORBIFLY Décembre 2007 - Disclaimer

ORBIFLY MET'MAP TEAM :

Programmation & Développement : Alexandra Zaïnal
Sur une idée originale de : Baudouin d'Aumeries
Assistance à la programmation : Marc-Olivier Méhu
Soutien technique & logistique : Manuel Goepfert

Contact : metmap@orbifly.com




SOURCES & CREDITS :

   NOAA       Earth
Advisory